sensor_id;sensor_type;location;lat;lon;timestamp;temperature;humidity
18073;DHT22;9161;47.348;9.648;2022-08-30T00:01:23;16.80;99.90
18073;DHT22;9161;47.348;9.648;2022-08-30T00:06:07;16.80;99.90
18073;DHT22;9161;47.348;9.648;2022-08-30T00:10:51;16.70;99.90
18073;DHT22;9161;47.348;9.648;2022-08-30T00:15:36;16.80;99.90
18073;DHT22;9161;47.348;9.648;2022-08-30T00:20:23;16.70;99.90
18073;DHT22;9161;47.348;9.648;2022-08-30T00:25:08;16.60;99.90
18073;DHT22;9161;47.348;9.648;2022-08-30T00:29:52;16.60;99.90
18073;DHT22;9161;47.348;9.648;2022-08-30T00:34:40;16.50;99.90
18073;DHT22;9161;47.348;9.648;2022-08-30T00:39:23;16.40;99.90
18073;DHT22;9161;47.348;9.648;2022-08-30T00:44:07;16.50;99.90
18073;DHT22;9161;47.348;9.648;2022-08-30T00:48:51;16.50;99.90
18073;DHT22;9161;47.348;9.648;2022-08-30T00:53:38;16.50;99.90
18073;DHT22;9161;47.348;9.648;2022-08-30T00:58:28;16.50;99.90
18073;DHT22;9161;47.348;9.648;2022-08-30T01:03:13;16.40;99.90
18073;DHT22;9161;47.348;9.648;2022-08-30T01:07:57;16.30;99.90
18073;DHT22;9161;47.348;9.648;2022-08-30T01:12:42;16.30;99.90
18073;DHT22;9161;47.348;9.648;2022-08-30T01:17:28;16.20;99.90
18073;DHT22;9161;47.348;9.648;2022-08-30T01:22:19;16.20;99.90
18073;DHT22;9161;47.348;9.648;2022-08-30T01:27:06;16.20;99.90
18073;DHT22;9161;47.348;9.648;2022-08-30T01:31:49;16.20;99.90
18073;DHT22;9161;47.348;9.648;2022-08-30T01:36:34;16.10;99.90
18073;DHT22;9161;47.348;9.648;2022-08-30T01:41:31;16.00;99.90
18073;DHT22;9161;47.348;9.648;2022-08-30T01:46:18;16.00;99.90
18073;DHT22;9161;47.348;9.648;2022-08-30T01:51:03;15.90;99.90
18073;DHT22;9161;47.348;9.648;2022-08-30T01:55:46;15.80;99.90
18073;DHT22;9161;47.348;9.648;2022-08-30T02:00:30;15.90;99.90
18073;DHT22;9161;47.348;9.648;2022-08-30T02:05:15;15.90;99.90
18073;DHT22;9161;47.348;9.648;2022-08-30T02:10:00;15.90;99.90
18073;DHT22;9161;47.348;9.648;2022-08-30T02:14:44;15.90;99.90
18073;DHT22;9161;47.348;9.648;2022-08-30T02:19:33;15.80;99.90
18073;DHT22;9161;47.348;9.648;2022-08-30T02:24:18;15.60;99.90
18073;DHT22;9161;47.348;9.648;2022-08-30T02:29:02;15.60;99.90
18073;DHT22;9161;47.348;9.648;2022-08-30T02:33:49;15.50;99.90
18073;DHT22;9161;47.348;9.648;2022-08-30T02:38:34;15.60;99.90
18073;DHT22;9161;47.348;9.648;2022-08-30T02:43:19;15.50;99.90
18073;DHT22;9161;47.348;9.648;2022-08-30T02:48:03;15.60;99.90
18073;DHT22;9161;47.348;9.648;2022-08-30T02:52:47;15.60;99.90
18073;DHT22;9161;47.348;9.648;2022-08-30T02:57:31;15.70;99.90
18073;DHT22;9161;47.348;9.648;2022-08-30T03:02:16;15.60;99.90
18073;DHT22;9161;47.348;9.648;2022-08-30T03:07:00;15.60;99.90
18073;DHT22;9161;47.348;9.648;2022-08-30T03:11:44;15.60;99.90
18073;DHT22;9161;47.348;9.648;2022-08-30T03:16:28;15.50;99.90
18073;DHT22;9161;47.348;9.648;2022-08-30T03:21:14;15.50;99.90
18073;DHT22;9161;47.348;9.648;2022-08-30T03:25:58;15.50;99.90
18073;DHT22;9161;47.348;9.648;2022-08-30T03:30:41;15.50;99.90
18073;DHT22;9161;47.348;9.648;2022-08-30T03:35:25;15.60;99.90
18073;DHT22;9161;47.348;9.648;2022-08-30T03:40:17;15.60;99.90
18073;DHT22;9161;47.348;9.648;2022-08-30T03:45:06;15.70;99.90
18073;DHT22;9161;47.348;9.648;2022-08-30T03:49:50;15.70;99.90
18073;DHT22;9161;47.348;9.648;2022-08-30T03:54:34;15.60;99.90
18073;DHT22;9161;47.348;9.648;2022-08-30T03:59:21;15.50;99.90
18073;DHT22;9161;47.348;9.648;2022-08-30T04:04:04;15.40;99.90
18073;DHT22;9161;47.348;9.648;2022-08-30T04:08:48;15.30;99.90
18073;DHT22;9161;47.348;9.648;2022-08-30T04:13:32;15.30;99.90
18073;DHT22;9161;47.348;9.648;2022-08-30T04:18:17;15.30;99.90
18073;DHT22;9161;47.348;9.648;2022-08-30T04:23:01;15.30;99.90
18073;DHT22;9161;47.348;9.648;2022-08-30T04:27:45;15.30;99.90
18073;DHT22;9161;47.348;9.648;2022-08-30T04:32:29;15.20;99.90
18073;DHT22;9161;47.348;9.648;2022-08-30T04:37:14;15.10;99.90
18073;DHT22;9161;47.348;9.648;2022-08-30T04:41:58;15.10;99.90
18073;DHT22;9161;47.348;9.648;2022-08-30T04:46:42;15.00;99.90
18073;DHT22;9161;47.348;9.648;2022-08-30T04:51:26;15.00;99.90
18073;DHT22;9161;47.348;9.648;2022-08-30T04:56:21;15.00;99.90
18073;DHT22;9161;47.348;9.648;2022-08-30T05:01:11;15.00;99.90
18073;DHT22;9161;47.348;9.648;2022-08-30T05:05:56;15.00;99.90
18073;DHT22;9161;47.348;9.648;2022-08-30T05:10:44;15.00;99.90
18073;DHT22;9161;47.348;9.648;2022-08-30T05:15:29;15.10;99.90
18073;DHT22;9161;47.348;9.648;2022-08-30T05:20:13;15.20;99.90
18073;DHT22;9161;47.348;9.648;2022-08-30T05:24:57;15.30;99.90
18073;DHT22;9161;47.348;9.648;2022-08-30T05:29:42;15.30;99.90
18073;DHT22;9161;47.348;9.648;2022-08-30T05:34:28;15.20;99.90
18073;DHT22;9161;47.348;9.648;2022-08-30T05:39:12;15.20;99.90
18073;DHT22;9161;47.348;9.648;2022-08-30T05:44:04;15.30;99.90
18073;DHT22;9161;47.348;9.648;2022-08-30T05:48:49;15.50;99.90
18073;DHT22;9161;47.348;9.648;2022-08-30T05:53:34;15.90;99.90
18073;DHT22;9161;47.348;9.648;2022-08-30T05:58:18;16.40;99.90
18073;DHT22;9161;47.348;9.648;2022-08-30T06:03:01;16.90;99.90
18073;DHT22;9161;47.348;9.648;2022-08-30T06:07:45;17.40;99.90
18073;DHT22;9161;47.348;9.648;2022-08-30T06:12:30;17.90;99.90
18073;DHT22;9161;47.348;9.648;2022-08-30T06:17:14;18.50;99.90
18073;DHT22;9161;47.348;9.648;2022-08-30T06:21:58;19.20;99.90
18073;DHT22;9161;47.348;9.648;2022-08-30T06:26:45;20.00;99.90
18073;DHT22;9161;47.348;9.648;2022-08-30T06:31:31;20.20;99.90
18073;DHT22;9161;47.348;9.648;2022-08-30T06:36:16;19.80;99.90
18073;DHT22;9161;47.348;9.648;2022-08-30T06:41:04;19.60;99.90
18073;DHT22;9161;47.348;9.648;2022-08-30T06:45:48;20.00;99.90
18073;DHT22;9161;47.348;9.648;2022-08-30T06:50:33;20.70;99.90
18073;DHT22;9161;47.348;9.648;2022-08-30T06:55:18;21.30;99.90
18073;DHT22;9161;47.348;9.648;2022-08-30T07:00:04;21.80;99.90
18073;DHT22;9161;47.348;9.648;2022-08-30T07:04:47;21.60;99.90
18073;DHT22;9161;47.348;9.648;2022-08-30T07:09:33;22.00;99.90
18073;DHT22;9161;47.348;9.648;2022-08-30T07:14:17;22.30;99.90
18073;DHT22;9161;47.348;9.648;2022-08-30T07:19:02;22.60;99.90
18073;DHT22;9161;47.348;9.648;2022-08-30T07:23:47;22.90;99.90
18073;DHT22;9161;47.348;9.648;2022-08-30T07:28:38;22.90;99.90
18073;DHT22;9161;47.348;9.648;2022-08-30T07:33:22;22.30;99.90
18073;DHT22;9161;47.348;9.648;2022-08-30T07:38:06;22.50;99.90
18073;DHT22;9161;47.348;9.648;2022-08-30T07:42:51;23.10;99.90
18073;DHT22;9161;47.348;9.648;2022-08-30T07:47:36;23.10;99.90
18073;DHT22;9161;47.348;9.648;2022-08-30T07:52:19;23.20;99.90
18073;DHT22;9161;47.348;9.648;2022-08-30T07:57:03;23.50;99.90
18073;DHT22;9161;47.348;9.648;2022-08-30T08:01:47;24.20;99.90
18073;DHT22;9161;47.348;9.648;2022-08-30T08:06:37;24.60;99.90
18073;DHT22;9161;47.348;9.648;2022-08-30T08:11:23;25.00;99.90
18073;DHT22;9161;47.348;9.648;2022-08-30T08:16:13;25.40;99.90
18073;DHT22;9161;47.348;9.648;2022-08-30T08:20:58;25.40;99.90
18073;DHT22;9161;47.348;9.648;2022-08-30T08:25:44;25.30;99.90
18073;DHT22;9161;47.348;9.648;2022-08-30T08:30:27;25.30;99.90
18073;DHT22;9161;47.348;9.648;2022-08-30T08:35:11;25.40;99.90
18073;DHT22;9161;47.348;9.648;2022-08-30T08:39:55;25.50;99.90
18073;DHT22;9161;47.348;9.648;2022-08-30T08:44:50;26.00;99.90
18073;DHT22;9161;47.348;9.648;2022-08-30T08:49:41;27.00;99.90
18073;DHT22;9161;47.348;9.648;2022-08-30T08:54:35;27.40;99.90
18073;DHT22;9161;47.348;9.648;2022-08-30T08:59:21;28.10;99.90
18073;DHT22;9161;47.348;9.648;2022-08-30T09:04:11;28.70;99.90
18073;DHT22;9161;47.348;9.648;2022-08-30T09:08:55;29.10;99.90
18073;DHT22;9161;47.348;9.648;2022-08-30T09:13:39;29.40;99.90
18073;DHT22;9161;47.348;9.648;2022-08-30T09:18:40;29.60;99.90
18073;DHT22;9161;47.348;9.648;2022-08-30T09:23:28;29.90;99.90
18073;DHT22;9161;47.348;9.648;2022-08-30T09:28:14;30.00;99.90
18073;DHT22;9161;47.348;9.648;2022-08-30T09:33:00;30.10;99.90
18073;DHT22;9161;47.348;9.648;2022-08-30T09:37:51;30.50;99.90
18073;DHT22;9161;47.348;9.648;2022-08-30T09:42:37;31.30;99.90
18073;DHT22;9161;47.348;9.648;2022-08-30T09:47:25;30.80;99.90
18073;DHT22;9161;47.348;9.648;2022-08-30T09:52:20;30.70;99.90
18073;DHT22;9161;47.348;9.648;2022-08-30T09:57:12;31.30;99.90
18073;DHT22;9161;47.348;9.648;2022-08-30T10:02:36;31.90;99.90
18073;DHT22;9161;47.348;9.648;2022-08-30T10:07:29;32.20;99.90
18073;DHT22;9161;47.348;9.648;2022-08-30T10:12:19;32.00;99.90
18073;DHT22;9161;47.348;9.648;2022-08-30T10:17:11;32.50;99.90
18073;DHT22;9161;47.348;9.648;2022-08-30T10:22:03;32.50;99.90
18073;DHT22;9161;47.348;9.648;2022-08-30T10:26:51;31.40;99.90
18073;DHT22;9161;47.348;9.648;2022-08-30T10:31:42;30.90;99.90
18073;DHT22;9161;47.348;9.648;2022-08-30T10:36:30;31.20;99.90
18073;DHT22;9161;47.348;9.648;2022-08-30T10:41:23;31.30;99.90
18073;DHT22;9161;47.348;9.648;2022-08-30T10:46:17;32.10;99.90
18073;DHT22;9161;47.348;9.648;2022-08-30T10:51:08;33.30;99.90
18073;DHT22;9161;47.348;9.648;2022-08-30T10:55:57;33.70;99.40
18073;DHT22;9161;47.348;9.648;2022-08-30T11:00:53;33.20;98.10
18073;DHT22;9161;47.348;9.648;2022-08-30T11:06:14;32.70;99.40
18073;DHT22;9161;47.348;9.648;2022-08-30T11:11:10;32.10;99.90
18073;DHT22;9161;47.348;9.648;2022-08-30T11:16:02;31.10;99.90
18073;DHT22;9161;47.348;9.648;2022-08-30T11:20:48;31.40;99.90
18073;DHT22;9161;47.348;9.648;2022-08-30T11:25:54;32.10;99.90
18073;DHT22;9161;47.348;9.648;2022-08-30T11:30:50;31.90;99.00
18073;DHT22;9161;47.348;9.648;2022-08-30T11:35:41;31.20;99.90
18073;DHT22;9161;47.348;9.648;2022-08-30T11:40:46;31.80;99.90
18073;DHT22;9161;47.348;9.648;2022-08-30T11:45:47;33.30;99.90
18073;DHT22;9161;47.348;9.648;2022-08-30T11:50:47;34.00;99.50
18073;DHT22;9161;47.348;9.648;2022-08-30T11:55:39;34.90;98.60
18073;DHT22;9161;47.348;9.648;2022-08-30T12:00:29;34.00;99.00
18073;DHT22;9161;47.348;9.648;2022-08-30T12:05:50;34.40;99.10
18073;DHT22;9161;47.348;9.648;2022-08-30T12:10:36;34.40;97.30
18073;DHT22;9161;47.348;9.648;2022-08-30T12:20:40;36.30;97.00
18073;DHT22;9161;47.348;9.648;2022-08-30T12:25:29;36.30;97.80
18073;DHT22;9161;47.348;9.648;2022-08-30T12:30:13;36.60;96.20
18073;DHT22;9161;47.348;9.648;2022-08-30T12:34:59;35.40;97.20
18073;DHT22;9161;47.348;9.648;2022-08-30T12:39:45;34.80;97.00
18073;DHT22;9161;47.348;9.648;2022-08-30T12:44:36;35.50;98.40
18073;DHT22;9161;47.348;9.648;2022-08-30T12:49:24;35.80;97.10
18073;DHT22;9161;47.348;9.648;2022-08-30T12:54:16;35.70;96.60
18073;DHT22;9161;47.348;9.648;2022-08-30T12:59:00;35.30;97.40
18073;DHT22;9161;47.348;9.648;2022-08-30T13:03:56;36.10;97.40
18073;DHT22;9161;47.348;9.648;2022-08-30T13:08:49;36.40;95.70
18073;DHT22;9161;47.348;9.648;2022-08-30T13:13:38;36.40;95.90
18073;DHT22;9161;47.348;9.648;2022-08-30T13:18:28;36.40;94.90
18073;DHT22;9161;47.348;9.648;2022-08-30T13:23:21;35.80;95.10
18073;DHT22;9161;47.348;9.648;2022-08-30T13:28:08;35.40;94.80
18073;DHT22;9161;47.348;9.648;2022-08-30T13:32:52;36.40;95.00
18073;DHT22;9161;47.348;9.648;2022-08-30T13:37:37;37.70;93.30
18073;DHT22;9161;47.348;9.648;2022-08-30T13:42:33;38.00;92.40
18073;DHT22;9161;47.348;9.648;2022-08-30T13:47:18;36.30;93.10
18073;DHT22;9161;47.348;9.648;2022-08-30T13:52:21;36.80;94.00
18073;DHT22;9161;47.348;9.648;2022-08-30T13:57:06;37.10;92.40
18073;DHT22;9161;47.348;9.648;2022-08-30T14:01:54;38.10;91.80
18073;DHT22;9161;47.348;9.648;2022-08-30T14:06:53;37.90;90.90
18073;DHT22;9161;47.348;9.648;2022-08-30T14:11:57;37.40;91.60
18073;DHT22;9161;47.348;9.648;2022-08-30T14:16:42;37.70;91.10
18073;DHT22;9161;47.348;9.648;2022-08-30T14:21:28;38.80;90.70
18073;DHT22;9161;47.348;9.648;2022-08-30T14:26:16;38.70;89.50
18073;DHT22;9161;47.348;9.648;2022-08-30T14:31:03;38.80;89.90
18073;DHT22;9161;47.348;9.648;2022-08-30T14:35:47;38.80;88.60
18073;DHT22;9161;47.348;9.648;2022-08-30T14:40:32;38.60;89.40
18073;DHT22;9161;47.348;9.648;2022-08-30T14:45:17;38.40;88.90
18073;DHT22;9161;47.348;9.648;2022-08-30T14:50:01;38.20;88.60
18073;DHT22;9161;47.348;9.648;2022-08-30T14:54:45;37.70;89.00
18073;DHT22;9161;47.348;9.648;2022-08-30T14:59:31;37.50;90.60
18073;DHT22;9161;47.348;9.648;2022-08-30T15:04:16;36.80;90.50
18073;DHT22;9161;47.348;9.648;2022-08-30T15:09:03;37.10;90.20
18073;DHT22;9161;47.348;9.648;2022-08-30T15:13:47;36.90;89.90
18073;DHT22;9161;47.348;9.648;2022-08-30T15:18:36;36.30;86.70
18073;DHT22;9161;47.348;9.648;2022-08-30T15:23:22;34.90;90.60
18073;DHT22;9161;47.348;9.648;2022-08-30T15:28:06;34.10;90.90
18073;DHT22;9161;47.348;9.648;2022-08-30T15:32:50;33.10;90.80
18073;DHT22;9161;47.348;9.648;2022-08-30T15:37:36;32.90;93.40
18073;DHT22;9161;47.348;9.648;2022-08-30T15:42:20;32.70;93.80
18073;DHT22;9161;47.348;9.648;2022-08-30T15:47:07;33.40;93.10
18073;DHT22;9161;47.348;9.648;2022-08-30T15:51:52;33.60;92.60
18073;DHT22;9161;47.348;9.648;2022-08-30T15:56:37;33.10;91.60
18073;DHT22;9161;47.348;9.648;2022-08-30T16:01:23;32.50;92.10
18073;DHT22;9161;47.348;9.648;2022-08-30T16:06:12;32.40;92.40
18073;DHT22;9161;47.348;9.648;2022-08-30T16:10:57;32.20;93.00
18073;DHT22;9161;47.348;9.648;2022-08-30T16:15:42;31.90;93.30
18073;DHT22;9161;47.348;9.648;2022-08-30T16:20:26;32.10;92.60
18073;DHT22;9161;47.348;9.648;2022-08-30T16:25:10;32.00;92.80
18073;DHT22;9161;47.348;9.648;2022-08-30T16:29:54;30.70;93.40
18073;DHT22;9161;47.348;9.648;2022-08-30T16:34:39;29.70;94.80
18073;DHT22;9161;47.348;9.648;2022-08-30T16:39:24;29.10;96.10
18073;DHT22;9161;47.348;9.648;2022-08-30T16:44:08;28.30;97.20
18073;DHT22;9161;47.348;9.648;2022-08-30T16:48:53;27.60;97.90
18073;DHT22;9161;47.348;9.648;2022-08-30T16:53:39;27.40;98.70
18073;DHT22;9161;47.348;9.648;2022-08-30T16:58:24;27.20;99.70
18073;DHT22;9161;47.348;9.648;2022-08-30T17:03:08;27.00;99.90
18073;DHT22;9161;47.348;9.648;2022-08-30T17:07:51;26.70;99.90
18073;DHT22;9161;47.348;9.648;2022-08-30T17:12:37;26.70;99.90
18073;DHT22;9161;47.348;9.648;2022-08-30T18:17:44;24.00;99.90
18073;DHT22;9161;47.348;9.648;2022-08-30T18:22:30;23.80;99.90
18073;DHT22;9161;47.348;9.648;2022-08-30T18:27:14;23.70;99.90
18073;DHT22;9161;47.348;9.648;2022-08-30T18:31:59;23.70;99.90
18073;DHT22;9161;47.348;9.648;2022-08-30T18:36:47;23.70;99.90
18073;DHT22;9161;47.348;9.648;2022-08-30T18:41:30;23.60;99.90
18073;DHT22;9161;47.348;9.648;2022-08-30T18:46:16;23.50;99.90
18073;DHT22;9161;47.348;9.648;2022-08-30T18:51:00;23.40;99.90
18073;DHT22;9161;47.348;9.648;2022-08-30T18:55:45;23.30;99.90
18073;DHT22;9161;47.348;9.648;2022-08-30T19:00:30;23.40;99.90
18073;DHT22;9161;47.348;9.648;2022-08-30T19:05:17;23.40;99.90
18073;DHT22;9161;47.348;9.648;2022-08-30T19:10:06;23.30;99.90
18073;DHT22;9161;47.348;9.648;2022-08-30T19:15:05;23.40;99.90
18073;DHT22;9161;47.348;9.648;2022-08-30T19:19:56;23.40;99.90
18073;DHT22;9161;47.348;9.648;2022-08-30T19:24:39;23.30;99.90
18073;DHT22;9161;47.348;9.648;2022-08-30T19:29:24;23.20;99.90
18073;DHT22;9161;47.348;9.648;2022-08-30T19:34:10;23.10;99.90
18073;DHT22;9161;47.348;9.648;2022-08-30T19:38:54;23.00;99.90
18073;DHT22;9161;47.348;9.648;2022-08-30T19:43:38;22.90;99.90
18073;DHT22;9161;47.348;9.648;2022-08-30T19:48:22;22.80;99.90
18073;DHT22;9161;47.348;9.648;2022-08-30T19:53:14;22.80;99.90
18073;DHT22;9161;47.348;9.648;2022-08-30T19:58:00;22.60;99.90
18073;DHT22;9161;47.348;9.648;2022-08-30T20:02:44;22.60;99.90
18073;DHT22;9161;47.348;9.648;2022-08-30T20:07:33;22.50;99.90
18073;DHT22;9161;47.348;9.648;2022-08-30T20:12:19;22.40;99.90
18073;DHT22;9161;47.348;9.648;2022-08-30T20:17:03;22.20;99.90
18073;DHT22;9161;47.348;9.648;2022-08-30T20:22:07;21.90;99.90
18073;DHT22;9161;47.348;9.648;2022-08-30T20:26:52;21.70;99.90
18073;DHT22;9161;47.348;9.648;2022-08-30T20:31:37;21.60;99.90
18073;DHT22;9161;47.348;9.648;2022-08-30T20:36:20;21.50;99.90
18073;DHT22;9161;47.348;9.648;2022-08-30T20:41:08;21.60;99.90
18073;DHT22;9161;47.348;9.648;2022-08-30T20:45:52;21.80;99.90
18073;DHT22;9161;47.348;9.648;2022-08-30T20:50:38;21.80;99.90
18073;DHT22;9161;47.348;9.648;2022-08-30T20:55:22;21.90;99.90
18073;DHT22;9161;47.348;9.648;2022-08-30T21:00:07;22.10;99.90
18073;DHT22;9161;47.348;9.648;2022-08-30T21:04:52;22.10;99.90
18073;DHT22;9161;47.348;9.648;2022-08-30T21:09:37;22.20;99.90
18073;DHT22;9161;47.348;9.648;2022-08-30T21:14:21;22.10;99.90
18073;DHT22;9161;47.348;9.648;2022-08-30T21:19:05;22.10;99.90
18073;DHT22;9161;47.348;9.648;2022-08-30T21:23:50;22.00;99.90
18073;DHT22;9161;47.348;9.648;2022-08-30T21:28:35;22.00;99.90
18073;DHT22;9161;47.348;9.648;2022-08-30T21:33:20;21.80;99.90
18073;DHT22;9161;47.348;9.648;2022-08-30T21:38:03;21.60;99.90
18073;DHT22;9161;47.348;9.648;2022-08-30T21:42:49;21.40;99.90
18073;DHT22;9161;47.348;9.648;2022-08-30T21:47:35;21.40;99.90
18073;DHT22;9161;47.348;9.648;2022-08-30T21:52:19;21.30;99.90
18073;DHT22;9161;47.348;9.648;2022-08-30T21:57:03;21.30;99.90
18073;DHT22;9161;47.348;9.648;2022-08-30T22:01:48;21.30;99.90
18073;DHT22;9161;47.348;9.648;2022-08-30T22:06:35;21.30;99.90
18073;DHT22;9161;47.348;9.648;2022-08-30T22:11:22;21.30;99.90
18073;DHT22;9161;47.348;9.648;2022-08-30T22:16:06;21.30;99.90
18073;DHT22;9161;47.348;9.648;2022-08-30T22:20:50;21.30;99.90
18073;DHT22;9161;47.348;9.648;2022-08-30T22:25:37;21.20;99.90
18073;DHT22;9161;47.348;9.648;2022-08-30T22:30:21;21.20;99.90
18073;DHT22;9161;47.348;9.648;2022-08-30T22:35:05;21.20;99.90
18073;DHT22;9161;47.348;9.648;2022-08-30T22:39:49;21.30;99.90
18073;DHT22;9161;47.348;9.648;2022-08-30T22:44:35;21.20;99.90
18073;DHT22;9161;47.348;9.648;2022-08-30T22:49:19;21.20;99.90
18073;DHT22;9161;47.348;9.648;2022-08-30T22:54:03;21.20;99.90
18073;DHT22;9161;47.348;9.648;2022-08-30T22:58:48;21.10;99.90
18073;DHT22;9161;47.348;9.648;2022-08-30T23:03:34;21.10;99.90
18073;DHT22;9161;47.348;9.648;2022-08-30T23:08:18;21.00;99.90
18073;DHT22;9161;47.348;9.648;2022-08-30T23:13:01;21.00;99.90
18073;DHT22;9161;47.348;9.648;2022-08-30T23:17:45;20.90;99.90
18073;DHT22;9161;47.348;9.648;2022-08-30T23:22:30;20.70;99.90
18073;DHT22;9161;47.348;9.648;2022-08-30T23:27:14;20.60;99.90
18073;DHT22;9161;47.348;9.648;2022-08-30T23:32:15;20.60;99.90
18073;DHT22;9161;47.348;9.648;2022-08-30T23:37:16;20.60;99.90
18073;DHT22;9161;47.348;9.648;2022-08-30T23:42:18;20.50;99.90
18073;DHT22;9161;47.348;9.648;2022-08-30T23:47:19;20.50;99.90
18073;DHT22;9161;47.348;9.648;2022-08-30T23:52:20;20.50;99.90
18073;DHT22;9161;47.348;9.648;2022-08-30T23:57:23;20.50;99.90
